sensor_id;sensor_type;location;lat;lon;timestamp;P1;durP1;ratioP1;P2;durP2;ratioP2
19492;SDS011;9887;54.366;10.958;2023-09-19T00:00:40;3.17;;;0.90;;
19492;SDS011;9887;54.366;10.958;2023-09-19T00:03:09;2.13;;;0.90;;
19492;SDS011;9887;54.366;10.958;2023-09-19T00:05:39;2.55;;;0.90;;
19492;SDS011;9887;54.366;10.958;2023-09-19T00:08:11;2.63;;;1.00;;
19492;SDS011;9887;54.366;10.958;2023-09-19T00:10:40;3.72;;;1.10;;
19492;SDS011;9887;54.366;10.958;2023-09-19T00:13:09;2.35;;;1.02;;
19492;SDS011;9887;54.366;10.958;2023-09-19T00:15:42;2.30;;;0.93;;
19492;SDS011;9887;54.366;10.958;2023-09-19T00:18:15;3.22;;;1.27;;
19492;SDS011;9887;54.366;10.958;2023-09-19T00:20:45;2.05;;;1.00;;
19492;SDS011;9887;54.366;10.958;2023-09-19T00:23:14;3.22;;;1.20;;
19492;SDS011;9887;54.366;10.958;2023-09-19T00:25:42;3.00;;;1.17;;
19492;SDS011;9887;54.366;10.958;2023-09-19T00:28:10;3.33;;;1.10;;
19492;SDS011;9887;54.366;10.958;2023-09-19T00:30:38;2.00;;;1.00;;
19492;SDS011;9887;54.366;10.958;2023-09-19T00:33:07;5.53;;;1.02;;
19492;SDS011;9887;54.366;10.958;2023-09-19T00:35:37;3.90;;;1.00;;
19492;SDS011;9887;54.366;10.958;2023-09-19T00:38:05;3.53;;;1.10;;
19492;SDS011;9887;54.366;10.958;2023-09-19T00:40:33;3.38;;;1.05;;
19492;SDS011;9887;54.366;10.958;2023-09-19T00:43:04;3.05;;;1.20;;
19492;SDS011;9887;54.366;10.958;2023-09-19T00:45:31;3.53;;;1.02;;
19492;SDS011;9887;54.366;10.958;2023-09-19T00:48:00;5.43;;;1.38;;
19492;SDS011;9887;54.366;10.958;2023-09-19T00:50:38;3.00;;;1.27;;
19492;SDS011;9887;54.366;10.958;2023-09-19T00:53:10;3.33;;;1.23;;
19492;SDS011;9887;54.366;10.958;2023-09-19T00:55:41;3.45;;;1.30;;
19492;SDS011;9887;54.366;10.958;2023-09-19T00:58:10;4.53;;;1.23;;
19492;SDS011;9887;54.366;10.958;2023-09-19T01:00:39;4.68;;;1.38;;
19492;SDS011;9887;54.366;10.958;2023-09-19T01:03:11;2.20;;;1.10;;
19492;SDS011;9887;54.366;10.958;2023-09-19T01:05:42;2.88;;;1.10;;
19492;SDS011;9887;54.366;10.958;2023-09-19T01:08:10;5.55;;;1.10;;
19492;SDS011;9887;54.366;10.958;2023-09-19T01:10:39;4.55;;;1.10;;
19492;SDS011;9887;54.366;10.958;2023-09-19T01:13:29;3.80;;;1.20;;
19492;SDS011;9887;54.366;10.958;2023-09-19T01:16:03;4.70;;;1.52;;
19492;SDS011;9887;54.366;10.958;2023-09-19T01:18:40;2.83;;;1.00;;
19492;SDS011;9887;54.366;10.958;2023-09-19T01:21:18;4.25;;;1.30;;
19492;SDS011;9887;54.366;10.958;2023-09-19T01:24:10;3.30;;;1.40;;
19492;SDS011;9887;54.366;10.958;2023-09-19T01:26:56;4.28;;;1.20;;
19492;SDS011;9887;54.366;10.958;2023-09-19T01:29:33;3.58;;;1.40;;
19492;SDS011;9887;54.366;10.958;2023-09-19T01:32:08;3.38;;;1.10;;
19492;SDS011;9887;54.366;10.958;2023-09-19T01:34:46;3.72;;;1.10;;
19492;SDS011;9887;54.366;10.958;2023-09-19T01:37:15;4.07;;;1.25;;
19492;SDS011;9887;54.366;10.958;2023-09-19T01:39:46;6.47;;;1.50;;
19492;SDS011;9887;54.366;10.958;2023-09-19T01:42:18;2.63;;;1.10;;
19492;SDS011;9887;54.366;10.958;2023-09-19T01:44:57;2.15;;;1.05;;
19492;SDS011;9887;54.366;10.958;2023-09-19T01:47:35;5.13;;;1.38;;
19492;SDS011;9887;54.366;10.958;2023-09-19T01:50:12;3.58;;;1.42;;
19492;SDS011;9887;54.366;10.958;2023-09-19T01:52:47;3.33;;;1.15;;
19492;SDS011;9887;54.366;10.958;2023-09-19T01:55:21;3.55;;;1.10;;
19492;SDS011;9887;54.366;10.958;2023-09-19T01:57:54;4.30;;;1.20;;
19492;SDS011;9887;54.366;10.958;2023-09-19T02:00:31;4.80;;;1.70;;
19492;SDS011;9887;54.366;10.958;2023-09-19T02:03:04;4.20;;;1.70;;
19492;SDS011;9887;54.366;10.958;2023-09-19T02:05:32;5.22;;;1.30;;
19492;SDS011;9887;54.366;10.958;2023-09-19T02:08:00;2.80;;;1.27;;
19492;SDS011;9887;54.366;10.958;2023-09-19T02:10:28;4.95;;;1.65;;
19492;SDS011;9887;54.366;10.958;2023-09-19T02:12:57;2.90;;;1.10;;
19492;SDS011;9887;54.366;10.958;2023-09-19T02:15:26;5.13;;;1.48;;
19492;SDS011;9887;54.366;10.958;2023-09-19T02:17:54;3.70;;;1.20;;
19492;SDS011;9887;54.366;10.958;2023-09-19T02:20:24;7.03;;;1.70;;
19492;SDS011;9887;54.366;10.958;2023-09-19T02:22:52;4.65;;;1.30;;
19492;SDS011;9887;54.366;10.958;2023-09-19T02:25:20;4.22;;;1.25;;
19492;SDS011;9887;54.366;10.958;2023-09-19T02:27:48;6.40;;;1.85;;
19492;SDS011;9887;54.366;10.958;2023-09-19T02:30:16;4.32;;;1.60;;
19492;SDS011;9887;54.366;10.958;2023-09-19T02:32:46;3.78;;;1.30;;
19492;SDS011;9887;54.366;10.958;2023-09-19T02:35:16;6.70;;;1.50;;
19492;SDS011;9887;54.366;10.958;2023-09-19T02:37:47;4.10;;;1.42;;
19492;SDS011;9887;54.366;10.958;2023-09-19T02:40:15;3.47;;;1.30;;
19492;SDS011;9887;54.366;10.958;2023-09-19T02:42:46;4.47;;;1.48;;
19492;SDS011;9887;54.366;10.958;2023-09-19T02:45:16;5.28;;;2.13;;
19492;SDS011;9887;54.366;10.958;2023-09-19T02:47:45;4.45;;;1.55;;
19492;SDS011;9887;54.366;10.958;2023-09-19T02:50:14;5.93;;;1.80;;
19492;SDS011;9887;54.366;10.958;2023-09-19T02:52:43;6.03;;;1.90;;
19492;SDS011;9887;54.366;10.958;2023-09-19T02:55:15;5.10;;;1.55;;
19492;SDS011;9887;54.366;10.958;2023-09-19T02:57:46;6.28;;;1.55;;
19492;SDS011;9887;54.366;10.958;2023-09-19T03:00:14;5.05;;;1.50;;
19492;SDS011;9887;54.366;10.958;2023-09-19T03:02:43;4.30;;;1.50;;
19492;SDS011;9887;54.366;10.958;2023-09-19T03:05:12;5.80;;;1.65;;
19492;SDS011;9887;54.366;10.958;2023-09-19T03:07:40;5.18;;;1.70;;
19492;SDS011;9887;54.366;10.958;2023-09-19T03:10:09;6.82;;;1.50;;
19492;SDS011;9887;54.366;10.958;2023-09-19T03:12:38;7.43;;;1.60;;
19492;SDS011;9887;54.366;10.958;2023-09-19T03:15:07;5.25;;;1.60;;
19492;SDS011;9887;54.366;10.958;2023-09-19T03:17:35;4.20;;;1.35;;
19492;SDS011;9887;54.366;10.958;2023-09-19T03:20:05;6.15;;;1.67;;
19492;SDS011;9887;54.366;10.958;2023-09-19T03:22:35;4.13;;;1.30;;
19492;SDS011;9887;54.366;10.958;2023-09-19T03:25:04;4.53;;;1.45;;
19492;SDS011;9887;54.366;10.958;2023-09-19T03:27:38;6.78;;;1.75;;
19492;SDS011;9887;54.366;10.958;2023-09-19T03:30:07;4.97;;;1.48;;
19492;SDS011;9887;54.366;10.958;2023-09-19T03:32:36;2.63;;;1.38;;
19492;SDS011;9887;54.366;10.958;2023-09-19T03:35:04;4.22;;;1.42;;
19492;SDS011;9887;54.366;10.958;2023-09-19T03:37:33;5.13;;;1.80;;
19492;SDS011;9887;54.366;10.958;2023-09-19T03:40:01;7.82;;;1.60;;
19492;SDS011;9887;54.366;10.958;2023-09-19T03:42:31;4.35;;;1.40;;
19492;SDS011;9887;54.366;10.958;2023-09-19T03:45:04;5.55;;;1.80;;
19492;SDS011;9887;54.366;10.958;2023-09-19T03:47:34;5.47;;;1.80;;
19492;SDS011;9887;54.366;10.958;2023-09-19T03:50:03;6.70;;;1.65;;
19492;SDS011;9887;54.366;10.958;2023-09-19T03:52:31;2.72;;;1.38;;
19492;SDS011;9887;54.366;10.958;2023-09-19T03:55:00;5.80;;;1.60;;
19492;SDS011;9887;54.366;10.958;2023-09-19T03:57:28;5.93;;;1.95;;
19492;SDS011;9887;54.366;10.958;2023-09-19T03:59:56;4.88;;;1.50;;
19492;SDS011;9887;54.366;10.958;2023-09-19T04:02:25;4.00;;;1.60;;
19492;SDS011;9887;54.366;10.958;2023-09-19T04:04:59;8.43;;;1.85;;
19492;SDS011;9887;54.366;10.958;2023-09-19T04:07:27;5.47;;;1.52;;
19492;SDS011;9887;54.366;10.958;2023-09-19T04:09:56;5.07;;;1.73;;
19492;SDS011;9887;54.366;10.958;2023-09-19T04:12:24;5.72;;;2.00;;
19492;SDS011;9887;54.366;10.958;2023-09-19T04:14:52;5.68;;;1.48;;
19492;SDS011;9887;54.366;10.958;2023-09-19T04:17:20;5.18;;;1.55;;
19492;SDS011;9887;54.366;10.958;2023-09-19T04:19:51;4.55;;;1.38;;
19492;SDS011;9887;54.366;10.958;2023-09-19T04:22:19;4.93;;;1.50;;
19492;SDS011;9887;54.366;10.958;2023-09-19T04:24:47;5.57;;;1.70;;
19492;SDS011;9887;54.366;10.958;2023-09-19T04:27:15;6.03;;;1.77;;
19492;SDS011;9887;54.366;10.958;2023-09-19T04:29:45;5.60;;;1.70;;
19492;SDS011;9887;54.366;10.958;2023-09-19T04:32:12;4.88;;;1.50;;
19492;SDS011;9887;54.366;10.958;2023-09-19T04:34:42;5.97;;;1.70;;
19492;SDS011;9887;54.366;10.958;2023-09-19T04:37:11;4.10;;;1.80;;
19492;SDS011;9887;54.366;10.958;2023-09-19T04:39:41;6.50;;;1.75;;
19492;SDS011;9887;54.366;10.958;2023-09-19T04:42:10;7.35;;;1.60;;
19492;SDS011;9887;54.366;10.958;2023-09-19T04:44:40;6.22;;;1.77;;
19492;SDS011;9887;54.366;10.958;2023-09-19T04:47:09;7.63;;;1.70;;
19492;SDS011;9887;54.366;10.958;2023-09-19T04:49:38;4.22;;;1.52;;
19492;SDS011;9887;54.366;10.958;2023-09-19T04:52:07;4.20;;;1.35;;
19492;SDS011;9887;54.366;10.958;2023-09-19T04:54:36;6.25;;;1.50;;
19492;SDS011;9887;54.366;10.958;2023-09-19T04:57:04;7.90;;;2.00;;
19492;SDS011;9887;54.366;10.958;2023-09-19T04:59:33;3.83;;;1.67;;
19492;SDS011;9887;54.366;10.958;2023-09-19T05:02:01;5.07;;;1.80;;
19492;SDS011;9887;54.366;10.958;2023-09-19T05:04:29;7.47;;;1.92;;
19492;SDS011;9887;54.366;10.958;2023-09-19T05:06:58;5.43;;;1.40;;
19492;SDS011;9887;54.366;10.958;2023-09-19T05:09:29;5.90;;;1.70;;
19492;SDS011;9887;54.366;10.958;2023-09-19T05:12:01;4.68;;;1.33;;
19492;SDS011;9887;54.366;10.958;2023-09-19T05:14:29;7.35;;;1.52;;
19492;SDS011;9887;54.366;10.958;2023-09-19T05:16:57;7.00;;;1.58;;
19492;SDS011;9887;54.366;10.958;2023-09-19T05:19:25;5.43;;;1.40;;
19492;SDS011;9887;54.366;10.958;2023-09-19T05:21:53;7.30;;;1.70;;
19492;SDS011;9887;54.366;10.958;2023-09-19T05:24:21;5.07;;;1.90;;
19492;SDS011;9887;54.366;10.958;2023-09-19T05:26:52;5.50;;;1.75;;
19492;SDS011;9887;54.366;10.958;2023-09-19T05:29:23;4.80;;;1.60;;
19492;SDS011;9887;54.366;10.958;2023-09-19T05:31:50;6.32;;;1.77;;
19492;SDS011;9887;54.366;10.958;2023-09-19T05:34:21;6.38;;;1.80;;
19492;SDS011;9887;54.366;10.958;2023-09-19T05:36:49;6.45;;;1.50;;
19492;SDS011;9887;54.366;10.958;2023-09-19T05:39:18;5.30;;;1.60;;
19492;SDS011;9887;54.366;10.958;2023-09-19T05:41:46;6.60;;;1.63;;
19492;SDS011;9887;54.366;10.958;2023-09-19T05:44:14;4.85;;;1.65;;
19492;SDS011;9887;54.366;10.958;2023-09-19T05:46:43;7.00;;;1.63;;
19492;SDS011;9887;54.366;10.958;2023-09-19T05:49:12;5.22;;;1.55;;
19492;SDS011;9887;54.366;10.958;2023-09-19T05:51:40;7.85;;;1.77;;
19492;SDS011;9887;54.366;10.958;2023-09-19T05:54:07;6.15;;;1.65;;
19492;SDS011;9887;54.366;10.958;2023-09-19T05:56:37;7.70;;;1.77;;
19492;SDS011;9887;54.366;10.958;2023-09-19T05:59:05;7.45;;;1.85;;
19492;SDS011;9887;54.366;10.958;2023-09-19T06:01:33;6.28;;;1.85;;
19492;SDS011;9887;54.366;10.958;2023-09-19T06:04:02;7.03;;;1.52;;
19492;SDS011;9887;54.366;10.958;2023-09-19T06:06:31;7.05;;;1.65;;
19492;SDS011;9887;54.366;10.958;2023-09-19T06:09:00;6.53;;;1.80;;
19492;SDS011;9887;54.366;10.958;2023-09-19T06:11:28;5.57;;;1.50;;
19492;SDS011;9887;54.366;10.958;2023-09-19T06:13:58;8.73;;;1.95;;
19492;SDS011;9887;54.366;10.958;2023-09-19T06:16:28;6.22;;;1.58;;
19492;SDS011;9887;54.366;10.958;2023-09-19T06:18:56;7.93;;;2.45;;
19492;SDS011;9887;54.366;10.958;2023-09-19T06:21:27;7.18;;;1.90;;
19492;SDS011;9887;54.366;10.958;2023-09-19T06:23:55;10.05;;;2.10;;
19492;SDS011;9887;54.366;10.958;2023-09-19T06:26:24;8.77;;;2.05;;
19492;SDS011;9887;54.366;10.958;2023-09-19T06:28:53;6.55;;;1.67;;
19492;SDS011;9887;54.366;10.958;2023-09-19T06:31:22;6.95;;;1.80;;
19492;SDS011;9887;54.366;10.958;2023-09-19T06:33:52;7.15;;;1.75;;
19492;SDS011;9887;54.366;10.958;2023-09-19T06:36:20;9.13;;;1.85;;
19492;SDS011;9887;54.366;10.958;2023-09-19T06:38:50;6.63;;;1.70;;
19492;SDS011;9887;54.366;10.958;2023-09-19T06:41:18;8.32;;;2.00;;
19492;SDS011;9887;54.366;10.958;2023-09-19T06:43:49;7.15;;;1.58;;
19492;SDS011;9887;54.366;10.958;2023-09-19T06:46:19;9.00;;;1.83;;
19492;SDS011;9887;54.366;10.958;2023-09-19T06:48:47;6.15;;;1.63;;
19492;SDS011;9887;54.366;10.958;2023-09-19T06:51:15;6.05;;;1.80;;
19492;SDS011;9887;54.366;10.958;2023-09-19T06:53:43;7.05;;;1.65;;
19492;SDS011;9887;54.366;10.958;2023-09-19T06:56:13;7.10;;;1.70;;
19492;SDS011;9887;54.366;10.958;2023-09-19T06:58:41;6.85;;;1.80;;
19492;SDS011;9887;54.366;10.958;2023-09-19T07:01:10;6.82;;;1.70;;
19492;SDS011;9887;54.366;10.958;2023-09-19T07:03:37;6.13;;;1.70;;
19492;SDS011;9887;54.366;10.958;2023-09-19T07:06:06;4.40;;;1.30;;
19492;SDS011;9887;54.366;10.958;2023-09-19T07:08:35;6.30;;;1.60;;
19492;SDS011;9887;54.366;10.958;2023-09-19T07:11:04;6.18;;;1.52;;
19492;SDS011;9887;54.366;10.958;2023-09-19T07:13:34;7.45;;;2.00;;
19492;SDS011;9887;54.366;10.958;2023-09-19T07:16:03;5.80;;;1.77;;
19492;SDS011;9887;54.366;10.958;2023-09-19T07:18:31;4.60;;;1.20;;
19492;SDS011;9887;54.366;10.958;2023-09-19T07:20:59;7.25;;;1.70;;
19492;SDS011;9887;54.366;10.958;2023-09-19T07:23:31;5.95;;;1.50;;
19492;SDS011;9887;54.366;10.958;2023-09-19T07:26:01;7.22;;;1.60;;
19492;SDS011;9887;54.366;10.958;2023-09-19T07:28:31;7.15;;;1.80;;
19492;SDS011;9887;54.366;10.958;2023-09-19T07:31:02;6.70;;;1.45;;
19492;SDS011;9887;54.366;10.958;2023-09-19T07:33:31;8.95;;;1.80;;
19492;SDS011;9887;54.366;10.958;2023-09-19T07:35:59;6.13;;;1.50;;
19492;SDS011;9887;54.366;10.958;2023-09-19T07:38:27;5.88;;;1.58;;
19492;SDS011;9887;54.366;10.958;2023-09-19T07:40:59;9.18;;;1.60;;
19492;SDS011;9887;54.366;10.958;2023-09-19T07:43:28;6.80;;;1.90;;
19492;SDS011;9887;54.366;10.958;2023-09-19T07:45:57;5.22;;;1.50;;
19492;SDS011;9887;54.366;10.958;2023-09-19T07:48:28;6.97;;;1.33;;
19492;SDS011;9887;54.366;10.958;2023-09-19T07:51:00;6.60;;;1.50;;
19492;SDS011;9887;54.366;10.958;2023-09-19T07:53:29;8.25;;;1.70;;
19492;SDS011;9887;54.366;10.958;2023-09-19T07:56:03;8.45;;;1.75;;
19492;SDS011;9887;54.366;10.958;2023-09-19T07:58:32;6.40;;;1.60;;
19492;SDS011;9887;54.366;10.958;2023-09-19T08:01:02;7.80;;;1.67;;
19492;SDS011;9887;54.366;10.958;2023-09-19T08:03:33;9.07;;;2.13;;
19492;SDS011;9887;54.366;10.958;2023-09-19T08:06:08;6.25;;;1.80;;
19492;SDS011;9887;54.366;10.958;2023-09-19T08:08:38;6.95;;;1.90;;
19492;SDS011;9887;54.366;10.958;2023-09-19T08:11:09;7.10;;;1.80;;
19492;SDS011;9887;54.366;10.958;2023-09-19T08:13:39;9.05;;;1.88;;
19492;SDS011;9887;54.366;10.958;2023-09-19T08:16:11;7.57;;;1.92;;
19492;SDS011;9887;54.366;10.958;2023-09-19T08:18:43;8.05;;;2.05;;
19492;SDS011;9887;54.366;10.958;2023-09-19T08:21:14;6.88;;;1.70;;
19492;SDS011;9887;54.366;10.958;2023-09-19T08:23:43;6.97;;;1.95;;
19492;SDS011;9887;54.366;10.958;2023-09-19T08:26:12;8.68;;;1.77;;
19492;SDS011;9887;54.366;10.958;2023-09-19T08:28:41;7.40;;;1.75;;
19492;SDS011;9887;54.366;10.958;2023-09-19T08:31:10;6.95;;;1.98;;
19492;SDS011;9887;54.366;10.958;2023-09-19T08:33:40;6.15;;;1.70;;
19492;SDS011;9887;54.366;10.958;2023-09-19T08:36:11;12.73;;;1.92;;
19492;SDS011;9887;54.366;10.958;2023-09-19T08:38:40;12.77;;;2.22;;
19492;SDS011;9887;54.366;10.958;2023-09-19T08:41:09;6.40;;;1.67;;
19492;SDS011;9887;54.366;10.958;2023-09-19T08:43:39;7.68;;;1.98;;
19492;SDS011;9887;54.366;10.958;2023-09-19T08:46:10;7.15;;;1.70;;
19492;SDS011;9887;54.366;10.958;2023-09-19T08:48:44;10.55;;;2.33;;
19492;SDS011;9887;54.366;10.958;2023-09-19T08:51:18;7.60;;;1.75;;
19492;SDS011;9887;54.366;10.958;2023-09-19T08:53:57;8.48;;;1.50;;
19492;SDS011;9887;54.366;10.958;2023-09-19T08:56:32;10.35;;;1.90;;
19492;SDS011;9887;54.366;10.958;2023-09-19T08:59:03;7.13;;;1.90;;
19492;SDS011;9887;54.366;10.958;2023-09-19T09:01:34;7.80;;;1.60;;
19492;SDS011;9887;54.366;10.958;2023-09-19T09:04:05;7.68;;;1.73;;
19492;SDS011;9887;54.366;10.958;2023-09-19T09:06:40;10.98;;;1.98;;
19492;SDS011;9887;54.366;10.958;2023-09-19T09:09:11;9.23;;;2.00;;
19492;SDS011;9887;54.366;10.958;2023-09-19T09:11:41;8.02;;;1.67;;
19492;SDS011;9887;54.366;10.958;2023-09-19T09:14:09;6.47;;;1.60;;
19492;SDS011;9887;54.366;10.958;2023-09-19T09:16:39;8.52;;;1.73;;
19492;SDS011;9887;54.366;10.958;2023-09-19T09:19:09;5.65;;;1.50;;
19492;SDS011;9887;54.366;10.958;2023-09-19T09:21:40;8.48;;;1.70;;
19492;SDS011;9887;54.366;10.958;2023-09-19T09:27:02;6.72;;;1.70;;
19492;SDS011;9887;54.366;10.958;2023-09-19T09:29:43;6.78;;;1.70;;
19492;SDS011;9887;54.366;10.958;2023-09-19T09:32:18;8.23;;;1.88;;
19492;SDS011;9887;54.366;10.958;2023-09-19T09:34:50;9.05;;;1.85;;
19492;SDS011;9887;54.366;10.958;2023-09-19T09:37:22;11.75;;;1.90;;
19492;SDS011;9887;54.366;10.958;2023-09-19T09:39:52;6.93;;;1.75;;
19492;SDS011;9887;54.366;10.958;2023-09-19T09:42:30;6.35;;;1.60;;
19492;SDS011;9887;54.366;10.958;2023-09-19T09:45:15;10.13;;;1.95;;
19492;SDS011;9887;54.366;10.958;2023-09-19T09:47:47;7.72;;;1.77;;
19492;SDS011;9887;54.366;10.958;2023-09-19T09:50:25;6.47;;;1.98;;
19492;SDS011;9887;54.366;10.958;2023-09-19T09:52:55;7.90;;;2.20;;
19492;SDS011;9887;54.366;10.958;2023-09-19T09:58:26;9.52;;;1.90;;
19492;SDS011;9887;54.366;10.958;2023-09-19T10:00:56;8.25;;;2.10;;
19492;SDS011;9887;54.366;10.958;2023-09-19T10:03:32;10.50;;;2.20;;
19492;SDS011;9887;54.366;10.958;2023-09-19T10:06:07;8.82;;;1.67;;
19492;SDS011;9887;54.366;10.958;2023-09-19T10:08:58;8.02;;;1.58;;
19492;SDS011;9887;54.366;10.958;2023-09-19T10:11:32;6.80;;;1.65;;
19492;SDS011;9887;54.366;10.958;2023-09-19T10:14:06;7.75;;;2.20;;
19492;SDS011;9887;54.366;10.958;2023-09-19T10:16:36;7.65;;;1.95;;
19492;SDS011;9887;54.366;10.958;2023-09-19T10:19:08;8.02;;;2.17;;
19492;SDS011;9887;54.366;10.958;2023-09-19T10:21:38;9.40;;;2.10;;
19492;SDS011;9887;54.366;10.958;2023-09-19T10:24:06;9.20;;;1.73;;
19492;SDS011;9887;54.366;10.958;2023-09-19T10:26:36;8.77;;;2.08;;
19492;SDS011;9887;54.366;10.958;2023-09-19T10:29:06;7.53;;;1.92;;
19492;SDS011;9887;54.366;10.958;2023-09-19T10:31:36;7.82;;;1.95;;
19492;SDS011;9887;54.366;10.958;2023-09-19T10:34:07;10.40;;;2.28;;
19492;SDS011;9887;54.366;10.958;2023-09-19T10:36:38;8.80;;;1.90;;
19492;SDS011;9887;54.366;10.958;2023-09-19T10:39:11;7.82;;;2.10;;
19492;SDS011;9887;54.366;10.958;2023-09-19T10:41:47;6.40;;;1.83;;
19492;SDS011;9887;54.366;10.958;2023-09-19T10:44:21;8.50;;;1.80;;
19492;SDS011;9887;54.366;10.958;2023-09-19T10:46:51;9.02;;;1.95;;
19492;SDS011;9887;54.366;10.958;2023-09-19T10:49:20;9.20;;;2.00;;
19492;SDS011;9887;54.366;10.958;2023-09-19T10:51:51;6.72;;;1.90;;
19492;SDS011;9887;54.366;10.958;2023-09-19T10:54:22;5.75;;;1.70;;
19492;SDS011;9887;54.366;10.958;2023-09-19T10:56:54;10.00;;;1.92;;
19492;SDS011;9887;54.366;10.958;2023-09-19T10:59:25;9.00;;;1.80;;
19492;SDS011;9887;54.366;10.958;2023-09-19T11:02:15;8.02;;;1.80;;
19492;SDS011;9887;54.366;10.958;2023-09-19T11:04:45;8.68;;;1.88;;
19492;SDS011;9887;54.366;10.958;2023-09-19T11:07:16;7.68;;;2.13;;
19492;SDS011;9887;54.366;10.958;2023-09-19T11:09:45;11.13;;;2.17;;
19492;SDS011;9887;54.366;10.958;2023-09-19T11:21:38;12.00;;;2.10;;
19492;SDS011;9887;54.366;10.958;2023-09-19T11:24:31;11.32;;;2.53;;
19492;SDS011;9887;54.366;10.958;2023-09-19T11:27:09;8.73;;;2.50;;
19492;SDS011;9887;54.366;10.958;2023-09-19T11:29:44;10.68;;;1.98;;
19492;SDS011;9887;54.366;10.958;2023-09-19T11:32:13;7.97;;;1.90;;
19492;SDS011;9887;54.366;10.958;2023-09-19T11:34:45;10.65;;;2.50;;
19492;SDS011;9887;54.366;10.958;2023-09-19T11:40:34;5.30;;;1.50;;
19492;SDS011;9887;54.366;10.958;2023-09-19T11:48:42;6.10;;;2.00;;
19492;SDS011;9887;54.366;10.958;2023-09-19T11:51:12;6.45;;;1.63;;
19492;SDS011;9887;54.366;10.958;2023-09-19T11:53:48;8.75;;;2.08;;
19492;SDS011;9887;54.366;10.958;2023-09-19T11:56:20;9.55;;;1.92;;
19492;SDS011;9887;54.366;10.958;2023-09-19T11:58:50;7.22;;;1.85;;
19492;SDS011;9887;54.366;10.958;2023-09-19T12:01:22;5.18;;;1.70;;
19492;SDS011;9887;54.366;10.958;2023-09-19T12:03:56;9.30;;;2.10;;
19492;SDS011;9887;54.366;10.958;2023-09-19T12:06:26;10.93;;;1.90;;
19492;SDS011;9887;54.366;10.958;2023-09-19T12:08:56;7.40;;;2.30;;
19492;SDS011;9887;54.366;10.958;2023-09-19T12:11:29;8.95;;;2.10;;
19492;SDS011;9887;54.366;10.958;2023-09-19T12:14:00;6.45;;;1.83;;
19492;SDS011;9887;54.366;10.958;2023-09-19T12:16:29;9.05;;;1.40;;
19492;SDS011;9887;54.366;10.958;2023-09-19T12:18:57;8.38;;;2.08;;
19492;SDS011;9887;54.366;10.958;2023-09-19T12:21:44;7.10;;;2.13;;
19492;SDS011;9887;54.366;10.958;2023-09-19T12:24:26;6.50;;;1.80;;
19492;SDS011;9887;54.366;10.958;2023-09-19T12:27:02;7.57;;;2.35;;
19492;SDS011;9887;54.366;10.958;2023-09-19T12:29:41;9.52;;;2.30;;
19492;SDS011;9887;54.366;10.958;2023-09-19T12:32:10;6.95;;;1.70;;
19492;SDS011;9887;54.366;10.958;2023-09-19T12:34:40;8.48;;;2.28;;
19492;SDS011;9887;54.366;10.958;2023-09-19T12:37:10;8.18;;;2.03;;
19492;SDS011;9887;54.366;10.958;2023-09-19T12:39:41;6.30;;;1.50;;
19492;SDS011;9887;54.366;10.958;2023-09-19T12:42:16;6.85;;;2.30;;
19492;SDS011;9887;54.366;10.958;2023-09-19T12:44:45;8.90;;;1.90;;
19492;SDS011;9887;54.366;10.958;2023-09-19T12:47:17;8.45;;;2.03;;
19492;SDS011;9887;54.366;10.958;2023-09-19T12:50:04;6.57;;;1.67;;
19492;SDS011;9887;54.366;10.958;2023-09-19T12:52:40;7.82;;;1.95;;
19492;SDS011;9887;54.366;10.958;2023-09-19T12:55:19;10.07;;;2.63;;
19492;SDS011;9887;54.366;10.958;2023-09-19T12:57:57;8.90;;;1.90;;
19492;SDS011;9887;54.366;10.958;2023-09-19T13:00:32;9.00;;;2.55;;
19492;SDS011;9887;54.366;10.958;2023-09-19T13:03:12;11.38;;;1.95;;
19492;SDS011;9887;54.366;10.958;2023-09-19T13:05:51;7.35;;;1.65;;
19492;SDS011;9887;54.366;10.958;2023-09-19T13:08:23;7.05;;;2.17;;
19492;SDS011;9887;54.366;10.958;2023-09-19T13:11:05;6.22;;;1.98;;
19492;SDS011;9887;54.366;10.958;2023-09-19T13:13:38;7.75;;;2.13;;
19492;SDS011;9887;54.366;10.958;2023-09-19T13:16:08;7.38;;;1.88;;
19492;SDS011;9887;54.366;10.958;2023-09-19T13:18:44;6.32;;;1.90;;
19492;SDS011;9887;54.366;10.958;2023-09-19T13:21:13;8.93;;;2.05;;
19492;SDS011;9887;54.366;10.958;2023-09-19T13:23:50;7.13;;;2.00;;
19492;SDS011;9887;54.366;10.958;2023-09-19T13:26:18;6.28;;;2.20;;
19492;SDS011;9887;54.366;10.958;2023-09-19T13:28:48;9.27;;;2.45;;
19492;SDS011;9887;54.366;10.958;2023-09-19T13:31:16;9.00;;;2.58;;
19492;SDS011;9887;54.366;10.958;2023-09-19T13:33:45;8.98;;;2.20;;
19492;SDS011;9887;54.366;10.958;2023-09-19T13:36:15;6.22;;;1.85;;
19492;SDS011;9887;54.366;10.958;2023-09-19T13:38:45;6.40;;;2.00;;
19492;SDS011;9887;54.366;10.958;2023-09-19T13:41:15;6.30;;;2.10;;
19492;SDS011;9887;54.366;10.958;2023-09-19T13:43:43;6.07;;;2.30;;
19492;SDS011;9887;54.366;10.958;2023-09-19T13:46:15;11.05;;;2.28;;
19492;SDS011;9887;54.366;10.958;2023-09-19T13:48:51;7.97;;;2.17;;
19492;SDS011;9887;54.366;10.958;2023-09-19T13:51:21;8.15;;;2.33;;
19492;SDS011;9887;54.366;10.958;2023-09-19T13:53:49;7.95;;;2.33;;
19492;SDS011;9887;54.366;10.958;2023-09-19T13:56:17;8.68;;;2.30;;
19492;SDS011;9887;54.366;10.958;2023-09-19T13:58:45;9.18;;;2.63;;
19492;SDS011;9887;54.366;10.958;2023-09-19T14:01:13;6.55;;;1.80;;
19492;SDS011;9887;54.366;10.958;2023-09-19T14:03:43;6.60;;;1.95;;
19492;SDS011;9887;54.366;10.958;2023-09-19T14:06:17;7.43;;;2.22;;
19492;SDS011;9887;54.366;10.958;2023-09-19T14:08:45;7.07;;;2.42;;
19492;SDS011;9887;54.366;10.958;2023-09-19T14:11:14;10.27;;;2.38;;
19492;SDS011;9887;54.366;10.958;2023-09-19T14:13:42;8.02;;;2.45;;
19492;SDS011;9887;54.366;10.958;2023-09-19T14:16:13;7.82;;;2.60;;
19492;SDS011;9887;54.366;10.958;2023-09-19T14:18:42;9.05;;;2.50;;
19492;SDS011;9887;54.366;10.958;2023-09-19T14:21:12;8.15;;;2.42;;
19492;SDS011;9887;54.366;10.958;2023-09-19T14:23:41;9.13;;;2.38;;
19492;SDS011;9887;54.366;10.958;2023-09-19T14:26:10;7.38;;;1.95;;
19492;SDS011;9887;54.366;10.958;2023-09-19T14:28:38;7.85;;;2.50;;
19492;SDS011;9887;54.366;10.958;2023-09-19T14:31:06;7.53;;;2.20;;
19492;SDS011;9887;54.366;10.958;2023-09-19T14:33:35;8.57;;;2.67;;
19492;SDS011;9887;54.366;10.958;2023-09-19T14:36:06;9.95;;;2.00;;
19492;SDS011;9887;54.366;10.958;2023-09-19T14:38:37;9.38;;;2.50;;
19492;SDS011;9887;54.366;10.958;2023-09-19T14:41:06;8.05;;;2.45;;
19492;SDS011;9887;54.366;10.958;2023-09-19T14:43:34;6.53;;;2.30;;
19492;SDS011;9887;54.366;10.958;2023-09-19T14:46:02;8.48;;;2.40;;
19492;SDS011;9887;54.366;10.958;2023-09-19T14:48:31;8.73;;;2.35;;
19492;SDS011;9887;54.366;10.958;2023-09-19T14:51:01;11.57;;;2.20;;
19492;SDS011;9887;54.366;10.958;2023-09-19T14:53:31;9.52;;;2.92;;
19492;SDS011;9887;54.366;10.958;2023-09-19T14:55:59;6.30;;;2.05;;
19492;SDS011;9887;54.366;10.958;2023-09-19T14:58:28;9.52;;;2.17;;
19492;SDS011;9887;54.366;10.958;2023-09-19T15:01:02;7.72;;;2.28;;
19492;SDS011;9887;54.366;10.958;2023-09-19T15:03:32;8.43;;;2.25;;
19492;SDS011;9887;54.366;10.958;2023-09-19T15:06:01;7.05;;;2.20;;
19492;SDS011;9887;54.366;10.958;2023-09-19T15:08:32;7.18;;;2.20;;
19492;SDS011;9887;54.366;10.958;2023-09-19T15:11:01;8.18;;;2.15;;
19492;SDS011;9887;54.366;10.958;2023-09-19T15:13:33;8.63;;;2.25;;
19492;SDS011;9887;54.366;10.958;2023-09-19T15:16:02;6.05;;;2.00;;
19492;SDS011;9887;54.366;10.958;2023-09-19T15:18:31;6.15;;;1.95;;
19492;SDS011;9887;54.366;10.958;2023-09-19T15:21:00;9.90;;;1.90;;
19492;SDS011;9887;54.366;10.958;2023-09-19T15:23:28;8.05;;;2.28;;
19492;SDS011;9887;54.366;10.958;2023-09-19T15:25:59;6.55;;;2.17;;
19492;SDS011;9887;54.366;10.958;2023-09-19T15:28:28;7.20;;;2.28;;
19492;SDS011;9887;54.366;10.958;2023-09-19T15:30:59;8.63;;;2.22;;
19492;SDS011;9887;54.366;10.958;2023-09-19T15:33:29;8.52;;;2.47;;